Time;durP1;ratioP1;P1;durP2;ratioP2;P2;SDS_P1;SDS_P2;PMS_P1;PMS_P2;Temp;Humidity;BMP_temperature;BMP_pressure;BME280_temperature;BME280_humidity;BME280_pressure;Samples;Min_cycle;Max_cycle;Signal;HPM_P1;HPM_P2
2023/06/11 00:01:17;;;;;;;4.63;1.33;;;15.80;95.10;;;;;;5024763;28;20226;-49
2023/06/11 00:03:46;;;;;;;2.33;1.30;;;15.70;95.30;;;;;;5039098;28;20709;-53
2023/06/11 00:06:17;;;;;;;3.73;1.33;;;15.70;95.60;;;;;;5042250;28;20202;-50
2023/06/11 00:08:45;;;;;;;2.40;1.30;;;15.60;95.80;;;;;;5013010;28;21247;-51
2023/06/11 00:11:11;;;;;;;2.00;1.30;;;15.50;96.00;;;;;;5042889;28;20289;-52
2023/06/11 00:13:38;;;;;;;2.33;1.17;;;15.50;96.20;;;;;;5044931;28;20244;-51
2023/06/11 00:16:06;;;;;;;3.43;1.57;;;15.50;96.40;;;;;;5036223;28;20223;-51
2023/06/11 00:18:35;;;;;;;2.90;1.30;;;15.40;96.60;;;;;;5040741;28;20238;-47
2023/06/11 00:21:02;;;;;;;2.07;1.53;;;15.40;96.70;;;;;;5042367;28;20203;-51
2023/06/11 00:23:29;;;;;;;2.80;1.10;;;15.30;96.90;;;;;;5047785;28;20214;-48
2023/06/11 00:25:57;;;;;;;2.23;1.53;;;15.30;97.30;;;;;;5019634;28;20223;-51
2023/06/11 00:28:23;;;;;;;1.93;1.63;;;15.30;97.40;;;;;;5036858;28;20269;-49
2023/06/11 00:30:50;;;;;;;5.03;1.63;;;15.20;97.60;;;;;;5037435;28;22007;-51
2023/06/11 00:33:17;;;;;;;3.97;1.40;;;15.20;97.90;;;;;;5036174;28;20707;-52
2023/06/11 00:35:45;;;;;;;3.57;1.50;;;15.20;98.10;;;;;;5045122;28;20216;-48
2023/06/11 00:38:12;;;;;;;2.57;1.40;;;15.20;98.30;;;;;;5048731;28;20234;-52
2023/06/11 00:40:39;;;;;;;4.47;1.70;;;15.20;98.50;;;;;;5020838;28;20223;-52
2023/06/11 00:43:07;;;;;;;4.10;1.43;;;15.20;98.70;;;;;;5038590;28;20271;-49
2023/06/11 00:45:34;;;;;;;3.37;1.77;;;15.10;98.90;;;;;;5043270;28;20199;-49
2023/06/11 00:48:01;;;;;;;6.13;1.60;;;15.10;99.10;;;;;;5037797;28;20230;-47
2023/06/11 00:50:29;;;;;;;2.37;1.20;;;15.00;99.30;;;;;;5046340;28;20195;-52
2023/06/11 00:52:58;;;;;;;2.17;1.40;;;15.00;99.50;;;;;;5047630;28;20272;-49
2023/06/11 00:55:25;;;;;;;2.30;1.27;;;14.90;99.80;;;;;;5034637;28;20272;-49
2023/06/11 00:57:53;;;;;;;4.10;1.20;;;14.90;99.90;;;;;;5022517;28;20215;-46
2023/06/11 01:00:20;;;;;;;3.30;1.03;;;14.90;99.90;;;;;;5032504;28;20192;-51
2023/06/11 01:02:51;;;;;;;3.23;1.60;;;14.90;99.90;;;;;;5041117;28;20195;-49
2023/06/11 01:05:21;;;;;;;1.70;1.40;;;14.90;99.90;;;;;;5036906;28;20203;-50
2023/06/11 01:07:51;;;;;;;2.97;1.60;;;14.90;99.90;;;;;;5044049;28;20701;-47
2023/06/11 01:10:23;;;;;;;2.93;1.30;;;14.80;99.90;;;;;;5043400;28;20241;-48
2023/06/11 01:12:52;;;;;;;4.73;1.27;;;14.80;99.90;;;;;;5023483;28;20235;-49
2023/06/11 01:15:19;;;;;;;2.23;0.90;;;14.80;99.90;;;;;;5035068;28;21023;-47
2023/06/11 01:17:54;;;;;;;3.13;1.30;;;14.70;99.90;;;;;;5041603;28;20224;-48
2023/06/11 01:20:25;;;;;;;3.10;1.40;;;14.70;99.90;;;;;;5030927;28;20206;-52
2023/06/11 01:23:15;;;;;;;2.03;1.50;;;14.70;99.90;;;;;;5045101;28;20186;-51
2023/06/11 01:25:50;;;;;;;2.47;1.47;;;14.70;99.90;;;;;;5053937;28;20191;-50
2023/06/11 01:28:24;;;;;;;5.20;1.93;;;14.60;99.90;;;;;;5013172;28;20227;-51
2023/06/11 01:30:55;;;;;;;2.40;1.30;;;14.60;99.90;;;;;;5030197;28;20709;-50
2023/06/11 01:33:24;;;;;;;4.57;1.40;;;14.60;99.90;;;;;;5029853;28;20231;-50
2023/06/11 01:35:57;;;;;;;3.60;1.40;;;14.50;99.90;;;;;;5044729;28;20195;-53
2023/06/11 01:38:30;;;;;;;3.17;1.30;;;14.50;99.90;;;;;;5034805;28;20213;-49
2023/06/11 01:40:58;;;;;;;4.57;1.60;;;14.50;99.90;;;;;;5040866;28;20249;-52
2023/06/11 01:43:29;;;;;;;2.37;1.20;;;14.40;99.90;;;;;;5016943;28;20207;-48
2023/06/11 01:45:56;;;;;;;3.73;1.30;;;14.40;99.90;;;;;;5030851;28;20571;-49
2023/06/11 01:48:22;;;;;;;2.73;1.57;;;14.40;99.90;;;;;;5039391;28;20215;-51
2023/06/11 01:50:49;;;;;;;1.70;1.00;;;14.30;99.90;;;;;;5036796;28;20211;-51
2023/06/11 01:53:16;;;;;;;1.80;1.30;;;14.30;99.90;;;;;;5034980;28;20212;-48
2023/06/11 01:55:43;;;;;;;6.30;1.40;;;14.30;99.90;;;;;;5039748;28;20198;-50
2023/06/11 01:58:11;;;;;;;4.63;1.53;;;14.30;99.90;;;;;;5021486;28;20921;-51
2023/06/11 02:00:39;;;;;;;3.93;1.40;;;14.30;99.90;;;;;;5035988;28;20445;-52
2023/06/11 02:03:06;;;;;;;2.87;1.13;;;14.20;99.90;;;;;;5039121;28;20241;-51
2023/06/11 02:05:33;;;;;;;9.20;1.80;;;14.20;99.90;;;;;;5036024;28;20203;-53
2023/06/11 02:08:00;;;;;;;2.20;1.20;;;14.20;99.90;;;;;;5030063;28;20561;-50
2023/06/11 02:10:27;;;;;;;3.53;1.53;;;14.10;99.90;;;;;;5045011;28;20191;-51
2023/06/11 02:12:54;;;;;;;3.30;1.67;;;14.10;99.90;;;;;;5040497;28;20223;-47
2023/06/11 02:15:21;;;;;;;3.27;1.50;;;14.00;99.90;;;;;;5015666;28;20235;-47
2023/06/11 02:17:50;;;;;;;3.33;1.30;;;14.00;99.90;;;;;;5032467;28;20215;-48
2023/06/11 02:20:16;;;;;;;3.03;1.30;;;14.00;99.90;;;;;;5037005;28;20249;-49
2023/06/11 02:22:44;;;;;;;2.37;1.23;;;14.00;99.90;;;;;;5028800;28;20211;-49
2023/06/11 02:25:10;;;;;;;4.70;1.47;;;14.00;99.90;;;;;;5059748;28;20211;-47
2023/06/11 02:27:37;;;;;;;3.57;1.50;;;13.90;99.90;;;;;;5031917;28;20219;-49
2023/06/11 02:30:06;;;;;;;1.93;1.23;;;13.80;99.90;;;;;;5015605;28;20589;-49
2023/06/11 02:32:33;;;;;;;2.03;1.47;;;13.80;99.90;;;;;;5024692;28;20207;-46
2023/06/11 02:35:01;;;;;;;5.00;1.33;;;13.80;99.90;;;;;;5042028;28;20199;-46
2023/06/11 02:37:28;;;;;;;4.70;1.30;;;13.80;99.90;;;;;;5031282;28;20219;-52
2023/06/11 02:39:55;;;;;;;1.87;1.23;;;13.80;99.90;;;;;;5037296;28;20203;-47
2023/06/11 02:42:21;;;;;;;3.23;1.60;;;13.80;99.90;;;;;;5039299;28;20265;-51
2023/06/11 02:44:49;;;;;;;4.70;1.27;;;13.80;99.90;;;;;;5017128;28;20210;-50
2023/06/11 02:47:15;;;;;;;5.07;2.07;;;13.80;99.90;;;;;;5033064;28;20203;-47
2023/06/11 02:49:42;;;;;;;2.07;1.43;;;13.80;99.90;;;;;;5040145;28;20187;-51
2023/06/11 02:52:10;;;;;;;2.33;1.57;;;13.80;99.90;;;;;;5043804;28;20211;-48
2023/06/11 02:54:37;;;;;;;5.83;1.70;;;13.80;99.90;;;;;;5023017;28;20248;-49
2023/06/11 02:57:05;;;;;;;3.27;1.73;;;13.80;99.90;;;;;;5039733;28;20203;-51
2023/06/11 02:59:31;;;;;;;3.20;1.40;;;13.90;99.90;;;;;;5039278;28;20772;-53
2023/06/11 03:01:58;;;;;;;3.30;2.03;;;13.90;99.90;;;;;;5015912;28;20610;-51
2023/06/11 03:04:25;;;;;;;8.43;1.90;;;13.90;99.90;;;;;;5031401;28;20198;-51
2023/06/11 03:06:53;;;;;;;2.20;1.97;;;13.90;99.90;;;;;;5034205;28;20195;-46
2023/06/11 03:09:23;;;;;;;4.40;2.20;;;13.90;99.90;;;;;;5025135;28;20238;-52
2023/06/11 03:11:50;;;;;;;4.00;2.30;;;13.90;99.90;;;;;;5053643;28;20700;-49
2023/06/11 03:14:20;;;;;;;3.97;2.90;;;13.90;99.90;;;;;;5040825;28;20295;-53
2023/06/11 03:16:46;;;;;;;4.00;2.50;;;13.90;99.90;;;;;;5020459;28;21223;-48
2023/06/11 03:19:13;;;;;;;5.40;2.30;;;13.90;99.90;;;;;;5029874;28;20203;-52
2023/06/11 03:21:40;;;;;;;4.67;2.93;;;13.90;99.90;;;;;;5033761;28;20191;-52
2023/06/11 03:24:09;;;;;;;3.30;2.60;;;13.90;99.90;;;;;;5035628;28;20697;-51
2023/06/11 03:26:37;;;;;;;4.97;3.00;;;13.90;99.90;;;;;;5033036;28;20191;-46
2023/06/11 03:29:04;;;;;;;3.83;2.67;;;13.90;99.90;;;;;;5044042;28;20600;-46
2023/06/11 03:31:37;;;;;;;6.33;2.97;;;13.80;99.90;;;;;;5031659;28;20187;-50
2023/06/11 03:34:04;;;;;;;5.00;2.47;;;13.80;99.90;;;;;;5018302;28;20224;-48
2023/06/11 03:36:32;;;;;;;3.00;2.70;;;13.90;99.90;;;;;;5034187;28;20577;-50
2023/06/11 03:39:00;;;;;;;5.03;2.83;;;13.90;99.90;;;;;;5035095;28;20210;-49
2023/06/11 03:41:27;;;;;;;4.63;2.70;;;13.90;99.90;;;;;;5031979;28;20214;-50
2023/06/11 03:43:56;;;;;;;4.50;2.70;;;13.80;99.90;;;;;;5035608;28;21051;-49
2023/06/11 03:46:23;;;;;;;3.60;2.80;;;13.90;99.90;;;;;;5039312;28;20662;-51
2023/06/11 03:48:50;;;;;;;4.23;2.60;;;13.90;99.90;;;;;;5016880;28;20230;-50
2023/06/11 03:51:17;;;;;;;4.33;2.63;;;13.90;99.90;;;;;;5054792;28;20249;-52
2023/06/11 03:53:44;;;;;;;3.83;2.67;;;13.90;99.90;;;;;;5037803;28;20265;-49
2023/06/11 03:56:10;;;;;;;2.77;2.50;;;13.90;99.90;;;;;;5029692;28;20199;-51
2023/06/11 03:58:37;;;;;;;4.50;2.60;;;13.90;99.90;;;;;;5038967;28;20207;-54
2023/06/11 04:01:05;;;;;;;2.97;2.50;;;13.90;99.90;;;;;;5041240;28;20286;-48
2023/06/11 04:03:33;;;;;;;5.00;2.60;;;13.90;99.90;;;;;;5038281;28;20598;-49
2023/06/11 04:06:00;;;;;;;7.33;2.50;;;14.00;99.90;;;;;;5017350;28;20235;-50
2023/06/11 04:08:27;;;;;;;3.77;2.57;;;14.10;99.90;;;;;;5029816;28;20234;-53
2023/06/11 04:10:54;;;;;;;3.97;2.70;;;14.10;99.90;;;;;;5033996;28;20290;-51
2023/06/11 04:13:21;;;;;;;4.03;2.50;;;14.10;99.90;;;;;;5038410;28;20226;-52
2023/06/11 04:15:48;;;;;;;2.70;2.50;;;14.10;99.90;;;;;;5040349;28;20926;-50
2023/06/11 04:18:16;;;;;;;7.13;2.73;;;14.20;99.90;;;;;;5037671;28;20653;-50
2023/06/11 04:20:43;;;;;;;3.83;3.07;;;14.30;99.90;;;;;;5011715;28;20196;-46
2023/06/11 04:23:10;;;;;;;5.70;2.23;;;14.30;99.90;;;;;;5025642;28;20195;-47
2023/06/11 04:25:39;;;;;;;5.43;2.53;;;14.30;99.90;;;;;;5037402;28;20270;-52
2023/06/11 04:28:09;;;;;;;5.83;2.33;;;14.30;99.90;;;;;;5023902;28;20328;-49
2023/06/11 04:30:36;;;;;;;2.97;2.23;;;14.30;99.90;;;;;;5036978;28;20191;-50
2023/06/11 04:33:04;;;;;;;3.63;2.40;;;14.30;99.90;;;;;;5035223;28;20324;-47
2023/06/11 04:35:34;;;;;;;2.73;2.17;;;14.30;99.90;;;;;;5021189;28;20199;-50
2023/06/11 04:38:02;;;;;;;3.50;1.93;;;14.30;99.90;;;;;;5030952;28;20223;-49
2023/06/11 04:40:30;;;;;;;6.43;2.10;;;14.30;99.90;;;;;;5029306;28;20684;-48
2023/06/11 04:42:58;;;;;;;3.07;2.20;;;14.30;99.90;;;;;;5026901;28;20744;-49
2023/06/11 04:45:28;;;;;;;5.80;2.53;;;14.30;99.90;;;;;;5031607;28;20203;-51
2023/06/11 04:47:56;;;;;;;4.77;2.30;;;14.30;99.90;;;;;;5039776;28;20273;-52
2023/06/11 04:50:24;;;;;;;4.00;2.53;;;14.30;99.90;;;;;;5029514;28;20227;-48
2023/06/11 04:52:56;;;;;;;5.00;2.30;;;14.30;99.90;;;;;;5036501;28;20237;-50
2023/06/11 04:55:24;;;;;;;3.23;2.37;;;14.30;99.90;;;;;;5029710;28;20187;-51
2023/06/11 04:57:51;;;;;;;6.53;3.07;;;14.30;99.90;;;;;;5033780;28;20247;-48
2023/06/11 05:00:20;;;;;;;4.47;2.13;;;14.40;99.90;;;;;;5038868;28;20273;-48
2023/06/11 05:02:46;;;;;;;3.73;2.20;;;14.40;99.90;;;;;;5043078;28;20886;-49
2023/06/11 05:05:14;;;;;;;3.43;2.23;;;14.40;99.90;;;;;;5045585;28;20191;-53
2023/06/11 05:07:41;;;;;;;3.70;2.03;;;14.50;99.90;;;;;;5013473;28;21118;-47
2023/06/11 05:10:10;;;;;;;3.30;2.40;;;14.50;99.90;;;;;;5046341;28;20199;-46
2023/06/11 05:12:38;;;;;;;3.43;2.37;;;14.60;99.90;;;;;;5036214;28;20202;-52
2023/06/11 05:15:06;;;;;;;2.90;2.27;;;14.70;99.90;;;;;;5046761;28;20292;-46
2023/06/11 05:17:33;;;;;;;2.50;2.30;;;14.80;99.90;;;;;;5027335;28;20597;-48
2023/06/11 05:20:00;;;;;;;3.27;2.20;;;14.90;99.90;;;;;;5037907;28;20195;-49
2023/06/11 05:22:27;;;;;;;4.17;2.30;;;15.00;99.90;;;;;;5020888;28;20678;-51
2023/06/11 05:24:54;;;;;;;5.60;2.43;;;15.00;99.90;;;;;;5047148;28;20222;-51
2023/06/11 05:27:28;;;;;;;5.10;1.90;;;15.10;99.90;;;;;;5039455;28;20600;-46
2023/06/11 05:29:56;;;;;;;4.13;1.90;;;15.20;99.90;;;;;;5039674;28;20250;-51
2023/06/11 05:32:23;;;;;;;4.20;2.10;;;15.30;99.90;;;;;;5031105;28;20596;-51
2023/06/11 05:34:50;;;;;;;3.80;1.90;;;15.40;99.90;;;;;;5038053;28;20226;-49
2023/06/11 05:37:18;;;;;;;4.40;2.23;;;15.50;99.90;;;;;;5020572;28;20226;-48
2023/06/11 05:39:46;;;;;;;3.23;2.00;;;15.60;99.90;;;;;;5034914;28;20673;-50
2023/06/11 05:42:13;;;;;;;4.50;1.90;;;15.70;99.90;;;;;;5007565;28;20261;-49
2023/06/11 05:44:43;;;;;;;4.17;1.90;;;15.70;99.90;;;;;;5037207;28;20227;-50
2023/06/11 05:47:11;;;;;;;5.10;2.10;;;15.80;99.90;;;;;;5032459;28;20327;-52
2023/06/11 05:49:38;;;;;;;3.50;2.13;;;15.90;99.90;;;;;;5043950;28;20196;-47
2023/06/11 05:52:06;;;;;;;3.70;2.17;;;15.90;99.90;;;;;;5037867;28;20184;-49
2023/06/11 05:54:33;;;;;;;6.27;2.33;;;16.00;99.90;;;;;;5019055;28;20227;-48
2023/06/11 05:57:00;;;;;;;4.83;2.27;;;16.10;99.90;;;;;;5019378;28;20207;-53
2023/06/11 05:59:27;;;;;;;2.00;1.80;;;16.20;99.90;;;;;;5030267;28;20211;-52
2023/06/11 06:01:55;;;;;;;7.50;2.07;;;16.20;99.90;;;;;;5043889;28;20731;-54
2023/06/11 06:04:25;;;;;;;5.47;2.07;;;;;;;;;;5034123;28;20203;-48
2023/06/11 06:06:53;;;;;;;2.90;1.93;;;;;;;;;;5036640;28;20604;-49
2023/06/11 06:09:20;;;;;;;2.70;1.77;;;;;;;;;;5020627;28;20217;-50
2023/06/11 06:11:48;;;;;;;2.10;1.90;;;;;;;;;;5032240;28;20622;-51
2023/06/11 06:14:15;;;;;;;3.10;1.87;;;;;;;;;;5034174;28;20222;-52
2023/06/11 06:16:47;;;;;;;2.97;2.20;;;;;;;;;;5041519;28;20262;-49
2023/06/11 06:19:20;;;;;;;2.90;1.90;;;;;;;;;;5032356;28;20269;-49
2023/06/11 06:21:49;;;;;;;3.87;1.80;;;;;;;;;;5044250;28;20269;-49
2023/06/11 06:24:20;;;;;;;5.33;1.80;;;;;;;;;;5020444;28;20203;-48
2023/06/11 06:26:51;;;;;;;4.30;1.97;;;17.20;99.90;;;;;;5030212;28;20209;-47
2023/06/11 06:29:18;;;;;;;3.23;1.90;;;17.20;99.90;;;;;;5013287;28;20352;-48
2023/06/11 06:31:45;;;;;;;3.00;2.17;;;17.30;99.90;;;;;;5040047;28;20223;-49
2023/06/11 06:34:14;;;;;;;2.40;1.77;;;17.30;99.90;;;;;;5033380;28;20934;-46
2023/06/11 06:36:42;;;;;;;4.53;2.20;;;17.40;99.90;;;;;;5033926;28;20202;-50
2023/06/11 06:39:09;;;;;;;4.57;2.13;;;17.50;99.90;;;;;;5018783;28;20234;-51
2023/06/11 06:41:37;;;;;;;7.13;2.30;;;17.60;99.90;;;;;;5037790;28;20223;-48
2023/06/11 06:44:09;;;;;;;5.10;2.23;;;17.70;99.90;;;;;;5022060;28;20192;-47
2023/06/11 06:46:36;;;;;;;2.23;1.90;;;17.70;99.90;;;;;;5031787;28;20294;-48
2023/06/11 06:49:04;;;;;;;2.57;1.97;;;17.80;99.90;;;;;;5032820;28;20223;-49
2023/06/11 06:51:36;;;;;;;3.70;2.07;;;17.80;99.90;;;;;;5036328;28;20290;-46
2023/06/11 06:54:05;;;;;;;3.07;1.80;;;18.00;99.90;;;;;;5013342;28;20956;-49
2023/06/11 06:56:33;;;;;;;3.40;2.10;;;18.10;99.90;;;;;;5037000;28;20195;-52
2023/06/11 06:59:03;;;;;;;4.83;2.10;;;18.20;99.90;;;;;;5029831;28;20342;-47
2023/06/11 07:01:32;;;;;;;4.03;2.10;;;18.40;99.90;;;;;;5027090;28;20568;-47
2023/06/11 07:04:00;;;;;;;2.77;2.00;;;18.30;99.90;;;;;;5050048;28;20191;-53
2023/06/11 07:06:27;;;;;;;5.27;2.20;;;18.40;99.90;;;;;;5033428;28;20207;-50
2023/06/11 07:08:54;;;;;;;2.80;1.97;;;18.60;99.90;;;;;;5038459;28;20294;-52
2023/06/11 07:11:23;;;;;;;5.07;2.10;;;18.60;99.90;;;;;;5014948;28;20603;-49
2023/06/11 07:13:50;;;;;;;4.40;1.87;;;18.70;99.90;;;;;;5028187;28;20223;-51
2023/06/11 07:16:17;;;;;;;3.70;2.07;;;18.90;99.90;;;;;;5035034;28;20206;-51
2023/06/11 07:18:52;;;;;;;2.70;2.00;;;19.00;99.90;;;;;;5026706;28;20223;-51
2023/06/11 07:21:20;;;;;;;2.53;1.80;;;18.90;99.90;;;;;;5035074;28;20550;-51
2023/06/11 07:23:49;;;;;;;5.83;2.00;;;19.00;99.90;;;;;;5030815;28;20199;-51
2023/06/11 07:26:18;;;;;;;3.07;2.47;;;19.10;99.90;;;;;;5021689;28;20753;-47
2023/06/11 07:28:48;;;;;;;3.47;2.03;;;19.20;99.90;;;;;;5020304;28;20314;-47
2023/06/11 07:31:15;;;;;;;2.90;2.13;;;19.40;99.90;;;;;;5026432;28;20199;-49
2023/06/11 07:33:44;;;;;;;3.03;2.10;;;19.40;99.90;;;;;;5034042;28;20250;-51
2023/06/11 07:36:11;;;;;;;5.10;2.47;;;19.50;99.90;;;;;;5032306;28;20246;-49
2023/06/11 07:38:38;;;;;;;1.77;1.67;;;19.50;99.90;;;;;;5034396;28;20219;-53
2023/06/11 07:41:05;;;;;;;2.47;1.90;;;19.60;99.90;;;;;;5024720;28;20852;-53
2023/06/11 07:43:32;;;;;;;3.50;2.00;;;19.70;99.90;;;;;;5014608;28;20216;-51
2023/06/11 07:46:03;;;;;;;4.37;1.87;;;19.80;99.90;;;;;;5032410;28;20721;-52
2023/06/11 07:48:31;;;;;;;2.90;1.87;;;20.00;99.90;;;;;;5026141;28;21072;-50
2023/06/11 07:50:59;;;;;;;2.60;1.93;;;20.00;99.90;;;;;;5043645;28;20195;-52
2023/06/11 07:53:26;;;;;;;4.80;2.20;;;20.10;99.90;;;;;;5016788;28;20215;-52
2023/06/11 07:55:56;;;;;;;3.00;2.13;;;20.20;99.90;;;;;;5042726;28;20198;-53
2023/06/11 07:58:23;;;;;;;7.53;2.00;;;20.20;99.90;;;;;;5019391;28;20277;-52
2023/06/11 08:00:51;;;;;;;4.50;2.00;;;20.40;99.40;;;;;;5029374;28;20207;-53
2023/06/11 08:03:19;;;;;;;2.23;1.97;;;20.50;99.10;;;;;;5030865;28;20206;-52
2023/06/11 08:05:46;;;;;;;5.13;2.17;;;20.60;99.20;;;;;;5039559;28;20199;-49
2023/06/11 08:08:12;;;;;;;4.27;1.90;;;20.60;99.30;;;;;;5028078;28;20254;-48
2023/06/11 08:10:39;;;;;;;2.67;2.10;;;20.70;99.30;;;;;;5030914;28;20344;-53
2023/06/11 08:13:07;;;;;;;4.20;2.00;;;20.80;99.20;;;;;;5019803;28;20210;-52
2023/06/11 08:15:34;;;;;;;3.67;2.50;;;20.80;98.90;;;;;;5027247;28;20306;-52
2023/06/11 08:18:01;;;;;;;6.07;2.30;;;20.90;98.60;;;;;;5026137;28;20269;-50
2023/06/11 08:20:29;;;;;;;3.27;1.90;;;20.90;98.50;;;;;;5029908;28;20211;-52
2023/06/11 08:22:56;;;;;;;3.77;2.00;;;21.00;98.30;;;;;;5036190;28;20211;-51
2023/06/11 08:25:23;;;;;;;2.77;2.47;;;21.10;98.40;;;;;;5031679;28;20191;-52
2023/06/11 08:27:50;;;;;;;3.50;2.10;;;21.30;97.90;;;;;;5019398;28;20247;-52
2023/06/11 08:30:17;;;;;;;3.13;2.13;;;21.50;97.40;;;;;;5034761;28;20893;-52
2023/06/11 08:32:45;;;;;;;9.70;2.50;;;21.50;97.20;;;;;;5036050;28;20206;-52
2023/06/11 08:35:11;;;;;;;3.27;2.27;;;21.60;96.70;;;;;;5036873;28;20223;-51
2023/06/11 08:37:40;;;;;;;4.13;2.20;;;21.70;96.40;;;;;;5034413;28;20223;-50
2023/06/11 08:40:09;;;;;;;3.53;2.17;;;21.70;96.60;;;;;;5037529;28;20241;-52
2023/06/11 08:42:36;;;;;;;5.63;2.47;;;21.80;95.60;;;;;;5040934;28;20199;-50
2023/06/11 08:45:03;;;;;;;2.83;2.30;;;21.80;95.30;;;;;;5025402;28;20280;-51
2023/06/11 08:47:31;;;;;;;4.07;2.30;;;21.90;95.30;;;;;;5036911;28;20295;-51
2023/06/11 08:50:02;;;;;;;3.90;2.10;;;22.10;95.20;;;;;;5044643;28;20203;-51
2023/06/11 08:52:32;;;;;;;3.27;2.47;;;22.10;95.10;;;;;;5024153;28;20289;-49
2023/06/11 08:55:00;;;;;;;3.43;2.17;;;22.20;94.60;;;;;;5042733;28;20549;-51
2023/06/11 08:57:28;;;;;;;4.03;2.13;;;22.30;94.90;;;;;;5035845;28;20493;-50
2023/06/11 08:59:54;;;;;;;3.77;2.23;;;22.40;94.90;;;;;;5025821;28;20568;-50
2023/06/11 09:02:21;;;;;;;2.87;2.03;;;22.50;94.50;;;;;;5040268;28;20180;-51
2023/06/11 09:04:48;;;;;;;2.37;2.17;;;22.60;94.40;;;;;;5031923;28;20287;-51
2023/06/11 09:07:23;;;;;;;3.27;2.13;;;22.70;93.90;;;;;;5030966;28;20899;-49
2023/06/11 09:09:53;;;;;;;3.33;2.50;;;22.80;93.50;;;;;;5042079;28;20589;-49
2023/06/11 09:12:21;;;;;;;2.80;2.42;;;22.90;92.80;;;;;;5035025;28;20874;-51
2023/06/11 09:14:53;;;;;;;3.42;2.13;;;23.00;93.00;;;;;;5046886;28;20280;-51
2023/06/11 09:17:19;;;;;;;3.83;2.37;;;23.10;92.70;;;;;;5016401;28;20200;-49
2023/06/11 09:19:47;;;;;;;2.33;2.00;;;23.10;92.40;;;;;;5036226;28;20308;-50
2023/06/11 09:22:14;;;;;;;3.47;2.00;;;23.20;92.50;;;;;;5033232;28;21399;-51
2023/06/11 09:24:41;;;;;;;4.05;2.50;;;23.20;92.00;;;;;;5029669;28;20272;-51
2023/06/11 09:27:09;;;;;;;2.83;2.45;;;23.30;91.70;;;;;;5038333;28;20211;-53
2023/06/11 09:29:43;;;;;;;5.90;2.22;;;23.50;91.20;;;;;;5039880;28;20208;-49
2023/06/11 09:32:11;;;;;;;3.92;1.98;;;23.50;90.90;;;;;;5016365;28;20928;-50
2023/06/11 09:34:38;;;;;;;3.92;2.30;;;23.60;90.80;;;;;;5034694;28;20261;-51
2023/06/11 09:37:05;;;;;;;4.43;2.40;;;23.70;90.60;;;;;;5044884;28;20203;-52
2023/06/11 09:39:32;;;;;;;5.15;2.10;;;23.80;90.60;;;;;;5030903;28;20222;-53
2023/06/11 09:41:58;;;;;;;2.42;2.22;;;23.80;90.40;;;;;;5037289;28;20211;-53
2023/06/11 09:44:27;;;;;;;3.25;2.30;;;23.80;89.90;;;;;;5037755;28;20258;-50
2023/06/11 09:46:56;;;;;;;3.42;2.60;;;23.80;89.20;;;;;;5023106;28;20199;-48
2023/06/11 09:49:24;;;;;;;3.35;2.33;;;23.80;88.90;;;;;;5042063;28;20215;-46
2023/06/11 09:51:52;;;;;;;2.97;2.00;;;23.80;88.80;;;;;;5029562;28;20869;-47
2023/06/11 09:54:21;;;;;;;4.03;2.40;;;23.90;87.50;;;;;;5033624;28;20203;-51
2023/06/11 09:56:48;;;;;;;4.15;2.40;;;23.90;87.40;;;;;;5035128;28;20230;-50
2023/06/11 09:59:17;;;;;;;4.68;2.25;;;24.10;86.50;;;;;;5038803;28;20272;-50
2023/06/11 10:01:48;;;;;;;3.85;2.40;;;24.20;86.20;;;;;;5043977;28;20223;-51
2023/06/11 10:04:16;;;;;;;2.90;2.10;;;24.30;85.00;;;;;;5006449;28;20286;-50
2023/06/11 10:06:47;;;;;;;2.75;2.08;;;24.50;83.40;;;;;;5032652;28;20211;-52
2023/06/11 10:09:15;;;;;;;4.07;2.30;;;24.60;82.20;;;;;;5027208;28;20219;-52
2023/06/11 10:11:44;;;;;;;2.80;2.13;;;24.80;80.60;;;;;;5039994;28;20202;-51
2023/06/11 10:14:15;;;;;;;6.88;2.50;;;24.80;78.90;;;;;;5034539;28;20253;-52
2023/06/11 10:16:49;;;;;;;5.63;2.35;;;24.90;74.30;;;;;;5039316;28;20219;-50
2023/06/11 10:19:18;;;;;;;3.42;2.40;;;24.80;75.00;;;;;;5019691;28;20223;-50
2023/06/11 10:21:49;;;;;;;8.05;2.38;;;24.90;74.20;;;;;;5027824;28;20286;-52
2023/06/11 10:24:23;;;;;;;3.33;2.55;;;25.10;72.60;;;;;;5030281;28;20677;-50
2023/06/11 10:27:05;;;;;;;7.47;2.10;;;25.20;70.20;;;;;;5025267;28;20195;-49
2023/06/11 10:29:37;;;;;;;2.33;2.00;;;25.30;69.80;;;;;;5029908;28;20328;-52
2023/06/11 10:32:14;;;;;;;3.40;2.35;;;25.50;67.80;;;;;;5044268;28;20191;-53
2023/06/11 10:34:42;;;;;;;2.65;2.22;;;25.60;66.60;;;;;;5015619;28;20235;-53
2023/06/11 10:37:10;;;;;;;2.55;2.20;;;25.70;65.40;;;;;;5032221;28;20230;-51
2023/06/11 10:39:37;;;;;;;2.65;2.35;;;25.70;64.70;;;;;;5031806;28;20227;-48
2023/06/11 10:42:05;;;;;;;2.47;2.25;;;25.60;64.90;;;;;;5032842;28;20205;-47
2023/06/11 10:44:40;;;;;;;3.70;2.50;;;25.80;64.70;;;;;;5034127;28;20207;-48
2023/06/11 10:47:08;;;;;;;5.93;2.97;;;25.90;62.70;;;;;;5041690;28;20293;-48
2023/06/11 10:49:35;;;;;;;3.95;2.05;;;25.90;62.20;;;;;;5013276;28;20303;-52
2023/06/11 10:52:04;;;;;;;4.72;2.22;;;26.10;61.10;;;;;;5032097;28;20256;-53
2023/06/11 10:54:34;;;;;;;6.35;2.35;;;26.20;61.20;;;;;;5029752;28;20468;-49
2023/06/11 10:57:02;;;;;;;3.78;2.00;;;26.20;60.80;;;;;;5028564;28;20666;-48
2023/06/11 10:59:31;;;;;;;2.40;2.20;;;26.30;60.30;;;;;;5038676;28;20249;-46
2023/06/11 11:01:58;;;;;;;2.50;2.30;;;26.40;59.90;;;;;;5036825;28;20203;-48
2023/06/11 11:04:26;;;;;;;2.95;2.25;;;26.50;59.40;;;;;;5012967;28;20223;-51
2023/06/11 11:07:07;;;;;;;3.10;2.35;;;26.40;59.00;;;;;;5037831;28;20199;-51
2023/06/11 11:09:35;;;;;;;3.72;2.38;;;26.30;58.60;;;;;;5027876;28;20215;-46
2023/06/11 11:12:03;;;;;;;3.22;2.50;;;26.50;57.80;;;;;;5035722;28;20203;-49
2023/06/11 11:14:31;;;;;;;4.50;2.20;;;26.60;57.40;;;;;;5033876;28;20817;-46
2023/06/11 11:17:00;;;;;;;4.15;2.10;;;26.70;57.10;;;;;;5029033;28;20677;-52
2023/06/11 11:19:28;;;;;;;3.13;2.40;;;26.70;56.80;;;;;;5018803;28;20227;-51
2023/06/11 11:21:55;;;;;;;4.35;2.50;;;26.70;55.70;;;;;;5042322;28;20192;-49
2023/06/11 11:24:23;;;;;;;3.17;2.45;;;26.80;55.00;;;;;;5023758;28;21009;-52
2023/06/11 11:26:50;;;;;;;2.75;2.33;;;26.90;55.10;;;;;;5029717;28;20208;-53
2023/06/11 11:29:17;;;;;;;3.42;2.40;;;26.80;55.70;;;;;;5027807;28;20223;-49
2023/06/11 11:31:45;;;;;;;2.50;2.28;;;26.70;55.10;;;;;;5040380;28;20204;-50
2023/06/11 11:34:12;;;;;;;3.65;2.22;;;26.70;55.70;;;;;;5041561;28;20821;-48
2023/06/11 11:36:39;;;;;;;4.03;2.53;;;26.80;55.40;;;;;;5021271;28;20261;-51
2023/06/11 11:39:10;;;;;;;2.58;2.38;;;26.90;55.70;;;;;;5028524;28;20235;-46
2023/06/11 11:41:47;;;;;;;3.42;2.03;;;26.80;55.70;;;;;;5028644;28;20570;-51
2023/06/11 11:44:15;;;;;;;6.85;2.50;;;26.80;55.50;;;;;;5033892;28;20214;-49
2023/06/11 11:46:42;;;;;;;5.88;2.35;;;26.80;55.50;;;;;;5043113;28;20188;-51
2023/06/11 11:49:10;;;;;;;3.28;2.38;;;26.90;55.50;;;;;;5033298;28;20709;-50
2023/06/11 11:51:40;;;;;;;2.78;2.05;;;27.00;55.20;;;;;;5009391;28;20238;-51
2023/06/11 11:54:07;;;;;;;9.00;2.47;;;27.10;54.50;;;;;;5034614;28;20195;-52
2023/06/11 11:56:35;;;;;;;3.38;2.40;;;27.20;54.30;;;;;;5042550;28;20792;-50
2023/06/11 11:59:03;;;;;;;2.15;2.05;;;27.20;53.40;;;;;;5038706;28;20215;-51
2023/06/11 12:01:36;;;;;;;2.65;2.55;;;27.10;53.20;;;;;;5033888;28;20274;-51
2023/06/11 12:04:05;;;;;;;4.25;3.28;;;27.20;53.70;;;;;;5017720;28;20276;-48
2023/06/11 12:06:32;;;;;;;4.00;2.50;;;27.40;53.00;;;;;;5013479;28;20214;-52
2023/06/11 12:08:59;;;;;;;2.25;2.00;;;27.40;51.90;;;;;;5033469;28;20386;-51
2023/06/11 12:11:26;;;;;;;2.67;2.47;;;27.30;51.40;;;;;;5024405;28;20249;-49
2023/06/11 12:13:52;;;;;;;3.53;2.50;;;27.30;51.10;;;;;;5030291;28;20204;-48
2023/06/11 12:16:23;;;;;;;4.90;2.47;;;27.40;52.00;;;;;;5029042;28;20243;-50
2023/06/11 12:18:51;;;;;;;3.85;1.98;;;27.50;51.40;;;;;;5031359;28;20737;-50
2023/06/11 12:21:18;;;;;;;2.53;2.20;;;27.70;51.30;;;;;;5021472;28;20285;-50
2023/06/11 12:23:44;;;;;;;2.90;2.45;;;27.90;51.00;;;;;;5038846;28;20194;-50
2023/06/11 12:26:11;;;;;;;3.28;2.42;;;27.90;50.50;;;;;;5032031;28;20517;-54
2023/06/11 12:28:38;;;;;;;6.47;2.55;;;27.80;50.10;;;;;;5019688;28;20304;-52
2023/06/11 12:31:05;;;;;;;3.13;2.60;;;27.80;50.00;;;;;;5035828;28;20199;-50
2023/06/11 12:33:33;;;;;;;3.13;2.10;;;27.80;49.40;;;;;;5033191;28;20685;-53
2023/06/11 12:36:01;;;;;;;7.82;2.35;;;27.70;48.30;;;;;;5041749;28;20290;-51
2023/06/11 12:38:28;;;;;;;2.67;2.13;;;27.70;49.00;;;;;;5013357;28;20711;-51
2023/06/11 12:40:55;;;;;;;3.50;2.22;;;27.80;48.30;;;;;;5026354;28;20207;-52
2023/06/11 12:43:22;;;;;;;3.58;2.03;;;27.80;48.70;;;;;;5029909;28;20200;-49
2023/06/11 12:45:49;;;;;;;3.33;1.98;;;28.00;48.60;;;;;;5025242;28;20827;-49
2023/06/11 12:48:16;;;;;;;2.30;2.10;;;28.30;47.20;;;;;;5035709;28;20247;-49
2023/06/11 12:50:46;;;;;;;4.97;2.00;;;;;;;;;;5036961;28;20956;-54
2023/06/11 12:53:14;;;;;;;3.92;2.30;;;;;;;;;;5018383;28;20203;-49
2023/06/11 12:55:41;;;;;;;2.33;2.17;;;28.60;84.30;;;;;;5028106;28;20246;-46